createdAt,value
2018-10-03T00:00:25.763Z,15.57
2018-10-03T00:02:54.085Z,15.83
2018-10-03T00:05:22.417Z,18.70
2018-10-03T00:07:50.741Z,15.77
2018-10-03T00:10:19.102Z,14.03
2018-10-03T00:12:47.491Z,17.10
2018-10-03T00:15:15.815Z,19.40
2018-10-03T00:17:44.123Z,15.03
2018-10-03T00:20:12.770Z,13.57
2018-10-03T00:22:41.083Z,19.00
2018-10-03T00:25:09.528Z,16.33
2018-10-03T00:27:37.841Z,14.97
2018-10-03T00:30:06.450Z,19.23
2018-10-03T00:32:34.743Z,17.30
2018-10-03T00:35:03.130Z,18.53
2018-10-03T00:37:31.404Z,14.43
2018-10-03T00:39:59.869Z,18.17
2018-10-03T00:42:28.176Z,17.13
2018-10-03T00:44:56.513Z,15.40
2018-10-03T00:47:24.831Z,16.03
2018-10-03T00:49:53.264Z,16.80
2018-10-03T00:52:21.671Z,14.87
2018-10-03T00:54:50.803Z,15.13
2018-10-03T00:57:19.096Z,13.03
2018-10-03T00:59:47.395Z,14.80
2018-10-03T01:02:15.760Z,15.03
2018-10-03T01:04:44.047Z,18.40
2018-10-03T01:07:12.355Z,15.53
2018-10-03T01:09:40.676Z,15.20
2018-10-03T01:12:09.022Z,18.43
2018-10-03T01:14:38.168Z,19.13
2018-10-03T01:17:06.694Z,16.23
2018-10-03T01:19:35.422Z,15.60
2018-10-03T01:22:03.757Z,18.10
2018-10-03T01:24:32.340Z,13.50
2018-10-03T01:27:00.655Z,19.63
2018-10-03T01:29:29.022Z,14.37
2018-10-03T01:31:57.382Z,14.40
2018-10-03T01:34:25.667Z,15.60
2018-10-03T01:36:53.992Z,15.20
2018-10-03T01:39:22.420Z,13.63
2018-10-03T01:41:50.811Z,14.90
2018-10-03T01:44:19.200Z,13.57
2018-10-03T01:46:47.508Z,14.63
2018-10-03T01:49:15.812Z,12.60
2018-10-03T01:51:44.133Z,11.97
2018-10-03T01:54:12.467Z,12.47
2018-10-03T01:56:40.827Z,13.83
2018-10-03T01:59:12.111Z,15.33
2018-10-03T02:01:40.435Z,14.97
2018-10-03T02:04:08.736Z,13.40
2018-10-03T02:06:37.283Z,13.10
2018-10-03T02:09:06.988Z,15.70
2018-10-03T02:11:35.359Z,14.17
2018-10-03T02:14:03.649Z,16.33
2018-10-03T02:16:31.984Z,10.53
2018-10-03T02:19:00.322Z,14.10
2018-10-03T02:21:28.659Z,10.83
2018-10-03T02:23:56.972Z,14.80
2018-10-03T02:26:25.306Z,14.00
2018-10-03T02:28:53.599Z,14.47
2018-10-03T02:31:21.906Z,14.10
2018-10-03T02:33:50.208Z,13.90
2018-10-03T02:36:18.521Z,13.40
2018-10-03T02:38:46.826Z,12.20
2018-10-03T02:41:15.155Z,13.50
2018-10-03T02:43:43.488Z,16.47
2018-10-03T02:46:11.785Z,12.60
2018-10-03T02:48:40.140Z,12.50
2018-10-03T02:51:08.458Z,8.17
2018-10-03T02:53:36.786Z,12.83
2018-10-03T02:56:05.072Z,16.60
2018-10-03T02:58:33.410Z,11.83
2018-10-03T03:01:01.815Z,10.03
2018-10-03T03:03:30.200Z,11.03
2018-10-03T03:05:58.568Z,14.73
2018-10-03T03:08:26.965Z,15.33
2018-10-03T03:10:55.297Z,13.47
2018-10-03T03:13:23.666Z,12.10
2018-10-03T03:15:52.026Z,13.23
2018-10-03T03:18:20.407Z,19.13
2018-10-03T03:20:48.764Z,12.73
2018-10-03T03:23:17.137Z,11.87
2018-10-03T03:25:45.525Z,16.97
2018-10-03T03:28:13.919Z,11.47
2018-10-03T03:30:42.273Z,13.43
2018-10-03T03:33:10.623Z,11.80
2018-10-03T03:35:39.128Z,14.87
2018-10-03T03:38:07.627Z,14.97
2018-10-03T03:40:36.098Z,16.23
2018-10-03T03:43:04.528Z,14.57
2018-10-03T03:45:32.881Z,14.90
2018-10-03T03:48:01.297Z,14.17
2018-10-03T03:50:30.145Z,12.53
2018-10-03T03:52:58.552Z,17.03
2018-10-03T03:55:26.878Z,12.80
2018-10-03T03:57:55.322Z,14.20
2018-10-03T04:00:23.821Z,18.13
2018-10-03T04:02:52.185Z,13.87
2018-10-03T04:05:20.537Z,14.17
2018-10-03T04:07:48.913Z,17.03
2018-10-03T04:10:17.252Z,12.00
2018-10-03T04:12:45.624Z,17.93
2018-10-03T04:15:14.023Z,13.93
2018-10-03T04:17:42.403Z,15.83
2018-10-03T04:20:10.809Z,11.97
2018-10-03T04:22:39.212Z,17.03
2018-10-03T04:25:07.617Z,16.87
2018-10-03T04:27:36.038Z,15.93
2018-10-03T04:30:04.438Z,14.03
2018-10-03T04:32:32.824Z,20.50
2018-10-03T04:35:01.160Z,19.60
2018-10-03T04:37:29.568Z,17.20
2018-10-03T04:39:57.942Z,15.73
2018-10-03T04:42:26.297Z,16.73
2018-10-03T04:44:54.838Z,15.97
2018-10-03T04:47:23.233Z,12.13
2018-10-03T04:49:51.708Z,18.03
2018-10-03T04:52:20.134Z,14.97
2018-10-03T04:54:57.469Z,19.97
2018-10-03T04:57:26.626Z,17.20
2018-10-03T04:59:55.014Z,13.00
2018-10-03T05:02:23.368Z,14.90
2018-10-03T05:04:51.797Z,19.37
2018-10-03T05:07:20.309Z,12.50
2018-10-03T05:09:48.728Z,14.77
2018-10-03T05:12:17.104Z,17.17
2018-10-03T05:14:45.595Z,18.57
2018-10-03T05:17:14.270Z,14.47
2018-10-03T05:19:42.682Z,18.77
2018-10-03T05:22:11.122Z,19.97
2018-10-03T05:24:39.522Z,16.30
2018-10-03T05:27:07.981Z,15.20
2018-10-03T05:29:36.568Z,15.43
2018-10-03T05:32:04.959Z,13.03
2018-10-03T05:34:33.437Z,17.90
2018-10-03T05:37:01.914Z,12.70
2018-10-03T05:39:30.364Z,17.90
2018-10-03T05:41:58.798Z,22.90
2018-10-03T05:44:27.252Z,14.87
2018-10-03T05:46:55.666Z,21.07
2018-10-03T05:49:24.109Z,17.57
2018-10-03T05:51:52.470Z,19.50
2018-10-03T05:54:20.853Z,19.13
2018-10-03T05:56:49.275Z,17.73
2018-10-03T05:59:17.694Z,19.47
2018-10-03T06:01:46.241Z,13.30
2018-10-03T06:04:15.070Z,19.70
2018-10-03T06:06:43.573Z,17.90
2018-10-03T06:09:12.993Z,14.90
2018-10-03T06:11:42.441Z,20.40
2018-10-03T06:14:11.155Z,23.97
2018-10-03T06:16:39.519Z,18.60
2018-10-03T06:19:07.884Z,12.87
2018-10-03T06:21:36.743Z,21.87
2018-10-03T06:24:05.204Z,20.40
2018-10-03T06:26:33.725Z,17.73
2018-10-03T06:29:02.782Z,17.43
2018-10-03T06:31:31.148Z,21.57
2018-10-03T06:33:59.605Z,16.80
2018-10-03T06:36:28.068Z,20.63
2018-10-03T06:38:56.526Z,13.97
2018-10-03T06:41:25.129Z,19.90
2018-10-03T06:43:53.533Z,18.63
2018-10-03T06:46:21.903Z,17.60
2018-10-03T06:48:50.309Z,21.23
2018-10-03T06:51:18.749Z,14.17
2018-10-03T06:53:47.125Z,11.63
2018-10-03T06:56:15.488Z,18.00
2018-10-03T06:58:43.850Z,14.73
2018-10-03T07:01:12.231Z,16.00
2018-10-03T07:03:40.596Z,13.57
2018-10-03T07:06:09.024Z,13.37
2018-10-03T07:08:37.438Z,17.43
2018-10-03T07:11:05.996Z,13.03
2018-10-03T07:13:34.333Z,10.90
2018-10-03T07:16:02.811Z,15.40
2018-10-03T07:18:31.194Z,19.13
2018-10-03T07:20:59.604Z,17.07
2018-10-03T07:23:28.015Z,16.83
2018-10-03T07:25:56.447Z,17.80
2018-10-03T07:28:24.832Z,18.93
2018-10-03T07:30:53.333Z,13.97
2018-10-03T07:33:21.912Z,12.57
2018-10-03T07:35:50.320Z,14.87
2018-10-03T07:38:18.690Z,15.63
2018-10-03T07:40:47.100Z,16.60
2018-10-03T07:43:15.478Z,14.10
2018-10-03T07:45:43.981Z,14.33
2018-10-03T07:48:12.472Z,15.17
2018-10-03T07:50:40.865Z,17.37
2018-10-03T07:53:09.218Z,17.30
2018-10-03T07:55:37.608Z,15.87
2018-10-03T07:58:06.303Z,13.90
2018-10-03T08:00:34.695Z,16.30
2018-10-03T08:03:03.094Z,14.73
2018-10-03T08:05:31.814Z,17.17
2018-10-03T08:08:00.461Z,14.30
2018-10-03T08:10:28.935Z,20.47
2018-10-03T08:12:57.790Z,13.93
2018-10-03T08:15:26.335Z,16.33
2018-10-03T08:17:54.665Z,17.87
2018-10-03T08:20:23.115Z,18.10
2018-10-03T08:22:51.565Z,16.03
2018-10-03T08:25:19.937Z,18.33
2018-10-03T08:27:49.581Z,11.87
2018-10-03T08:30:18.143Z,10.60
2018-10-03T08:32:46.692Z,15.67
2018-10-03T08:35:15.004Z,18.10
2018-10-03T08:37:43.361Z,13.50
2018-10-03T08:40:11.808Z,14.83
2018-10-03T08:42:40.214Z,12.53
2018-10-03T08:45:08.917Z,10.70
2018-10-03T08:47:38.136Z,13.80
2018-10-03T08:50:08.860Z,14.77
2018-10-03T08:52:37.728Z,11.03
2018-10-03T08:55:06.510Z,12.87
2018-10-03T08:57:35.484Z,11.93
2018-10-03T09:00:10.309Z,12.27
2018-10-03T09:02:38.972Z,13.87
2018-10-03T09:05:07.896Z,16.00
2018-10-03T09:07:36.538Z,10.50
2018-10-03T09:10:05.159Z,11.73
2018-10-03T09:12:33.503Z,13.93
2018-10-03T09:15:01.871Z,11.60
2018-10-03T09:17:30.206Z,11.40
2018-10-03T09:19:58.687Z,9.87
2018-10-03T09:22:27.061Z,15.07
2018-10-03T09:24:55.497Z,10.03
2018-10-03T09:27:24.005Z,14.43
2018-10-03T09:29:52.351Z,15.07
2018-10-03T09:32:20.732Z,12.17
2018-10-03T09:34:49.238Z,9.13
2018-10-03T09:37:17.718Z,10.07
2018-10-03T09:39:46.092Z,15.93
2018-10-03T09:42:14.511Z,10.07
2018-10-03T09:44:42.846Z,11.80
2018-10-03T09:47:11.462Z,6.53
2018-10-03T09:49:39.790Z,10.97
2018-10-03T09:52:08.167Z,10.33
2018-10-03T09:54:36.452Z,9.63
2018-10-03T09:57:04.799Z,8.23
2018-10-03T09:59:33.098Z,9.67
2018-10-03T10:02:01.522Z,9.40
2018-10-03T10:04:29.917Z,11.20
2018-10-03T10:06:58.472Z,10.70
2018-10-03T10:09:26.944Z,9.70
2018-10-03T10:11:55.434Z,7.97
2018-10-03T10:14:23.777Z,10.23
2018-10-03T10:16:52.151Z,8.40
2018-10-03T10:19:22.005Z,10.00
2018-10-03T10:21:50.503Z,6.40
2018-10-03T10:24:18.893Z,9.63
2018-10-03T10:26:47.285Z,10.40
2018-10-03T10:29:15.707Z,7.57
2018-10-03T10:31:44.265Z,10.40
2018-10-03T10:34:12.973Z,7.70
2018-10-03T10:36:41.351Z,10.93
2018-10-03T10:39:11.023Z,9.40
2018-10-03T10:41:39.582Z,11.20
2018-10-03T10:44:08.047Z,11.47
2018-10-03T10:46:36.835Z,8.47
2018-10-03T10:49:05.244Z,8.90
2018-10-03T10:51:33.837Z,11.07
2018-10-03T10:54:02.344Z,7.20
2018-10-03T10:56:31.267Z,9.77
2018-10-03T10:59:00.162Z,8.60
2018-10-03T11:01:28.689Z,9.60
2018-10-03T11:03:57.332Z,9.07
2018-10-03T11:06:25.985Z,15.87
2018-10-03T11:08:55.421Z,11.93
2018-10-03T11:11:25.470Z,10.57
2018-10-03T11:13:53.992Z,8.43
2018-10-03T11:16:22.587Z,5.43
2018-10-03T11:18:51.124Z,5.83
2018-10-03T11:21:19.585Z,14.77
2018-10-03T11:23:49.630Z,11.67
2018-10-03T11:26:18.362Z,8.00
2018-10-03T11:28:47.183Z,15.00
2018-10-03T11:31:15.729Z,9.47
2018-10-03T11:33:44.432Z,9.77
2018-10-03T11:36:13.240Z,6.80
2018-10-03T11:38:42.767Z,9.10
2018-10-03T11:41:13.554Z,11.73
2018-10-03T11:43:42.121Z,8.57
2018-10-03T11:46:11.151Z,8.43
2018-10-03T11:48:39.732Z,12.00
2018-10-03T11:51:09.433Z,9.80
2018-10-03T11:53:38.119Z,8.03
2018-10-03T11:56:06.660Z,11.40
2018-10-03T11:58:35.174Z,9.93
2018-10-03T12:01:03.866Z,13.93
2018-10-03T12:03:32.544Z,9.90
2018-10-03T12:06:00.966Z,13.67
2018-10-03T12:08:29.779Z,11.23
2018-10-03T12:10:58.260Z,12.07
2018-10-03T12:13:27.559Z,9.43
2018-10-03T12:15:56.039Z,11.23
2018-10-03T12:18:24.691Z,9.47
2018-10-03T12:20:53.140Z,12.10
2018-10-03T12:23:21.590Z,9.10
2018-10-03T12:25:50.891Z,9.53
2018-10-03T12:28:19.309Z,9.60
2018-10-03T12:30:47.650Z,6.97
2018-10-03T12:33:16.186Z,8.40
2018-10-03T12:35:44.598Z,10.27
2018-10-03T12:38:12.994Z,11.10
2018-10-03T12:40:53.507Z,7.73
2018-10-03T12:43:21.970Z,5.33
2018-10-03T12:45:50.334Z,8.07
2018-10-03T12:48:18.897Z,9.33
2018-10-03T12:50:47.280Z,9.03
2018-10-03T12:53:15.731Z,5.23
2018-10-03T12:55:44.222Z,8.27
2018-10-03T12:58:12.574Z,9.43
2018-10-03T13:00:41.161Z,11.17
2018-10-03T13:03:09.670Z,8.23
2018-10-03T13:05:38.083Z,8.27
2018-10-03T13:08:14.238Z,4.93
2018-10-03T13:10:42.670Z,8.50
2018-10-03T13:13:11.010Z,8.00
2018-10-03T13:15:39.487Z,5.10
2018-10-03T13:18:07.907Z,18.90
2018-10-03T13:20:37.567Z,9.07
2018-10-03T13:23:06.124Z,7.50
2018-10-03T13:25:34.528Z,6.27
2018-10-03T13:28:02.995Z,5.57
2018-10-03T13:30:31.365Z,8.03
2018-10-03T13:33:00.166Z,8.00
2018-10-03T13:35:28.608Z,7.27
2018-10-03T13:37:57.147Z,8.20
2018-10-03T13:40:25.603Z,6.40
2018-10-03T13:42:53.971Z,5.57
2018-10-03T13:45:22.407Z,7.63
2018-10-03T13:47:53.566Z,6.30
2018-10-03T13:50:21.956Z,5.70
2018-10-03T13:52:50.298Z,7.23
2018-10-03T13:55:18.767Z,6.43
2018-10-03T13:57:47.154Z,6.93
2018-10-03T14:00:15.643Z,5.63
2018-10-03T14:02:44.032Z,10.97
2018-10-03T14:05:12.718Z,10.77
2018-10-03T14:07:41.446Z,9.83
2018-10-03T14:10:16.685Z,7.23
2018-10-03T14:15:21.344Z,7.40
2018-10-03T14:17:49.811Z,5.50
2018-10-03T14:20:18.226Z,8.60
2018-10-03T14:22:46.635Z,9.47
2018-10-03T14:25:15.028Z,5.07
2018-10-03T14:27:43.523Z,8.63
2018-10-03T14:30:14.627Z,5.97
2018-10-03T14:32:43.184Z,7.30
2018-10-03T14:35:18.758Z,7.17
2018-10-03T14:37:52.045Z,6.07
2018-10-03T14:40:20.485Z,6.43
2018-10-03T14:42:55.065Z,6.53
2018-10-03T14:45:23.455Z,6.87
2018-10-03T14:47:51.836Z,7.33
2018-10-03T14:50:21.489Z,9.83
2018-10-03T14:52:49.966Z,7.47
2018-10-03T14:55:18.314Z,8.13
2018-10-03T14:57:46.775Z,8.47
2018-10-03T15:00:16.967Z,8.20
2018-10-03T15:02:45.487Z,6.70
2018-10-03T15:05:13.859Z,8.17
2018-10-03T15:07:42.290Z,7.90
2018-10-03T15:10:10.807Z,8.27
2018-10-03T15:12:39.168Z,7.07
2018-10-03T15:15:07.736Z,8.60
2018-10-03T15:17:36.085Z,10.70
2018-10-03T15:20:04.555Z,7.20
2018-10-03T15:22:32.876Z,7.50
2018-10-03T15:25:01.245Z,7.53
2018-10-03T15:27:29.867Z,8.57
2018-10-03T15:29:58.356Z,8.73
2018-10-03T15:32:26.595Z,7.60
2018-10-03T15:34:55.241Z,8.20
2018-10-03T15:37:23.602Z,5.97
2018-10-03T15:39:51.971Z,7.70
2018-10-03T15:42:20.345Z,7.73
2018-10-03T15:44:48.718Z,9.73
2018-10-03T15:47:18.680Z,8.77
2018-10-03T15:49:47.127Z,9.40
2018-10-03T15:52:17.524Z,8.30
2018-10-03T15:54:45.959Z,8.80
2018-10-03T15:57:14.522Z,9.23
2018-10-03T15:59:43.018Z,6.37
2018-10-03T16:02:11.478Z,7.97
2018-10-03T16:04:39.849Z,8.40
2018-10-03T16:07:08.187Z,8.23
2018-10-03T16:09:36.597Z,9.43
2018-10-03T16:12:04.903Z,10.87
2018-10-03T16:14:33.412Z,6.37
2018-10-03T16:17:01.845Z,5.60
2018-10-03T16:19:30.363Z,7.33
2018-10-03T16:21:58.711Z,6.43
2018-10-03T16:24:27.267Z,6.97
2018-10-03T16:26:55.652Z,6.60
2018-10-03T16:29:24.190Z,7.67
2018-10-03T16:31:53.077Z,10.43
2018-10-03T16:34:21.833Z,21.37
2018-10-03T16:36:50.446Z,14.93
2018-10-03T16:39:19.004Z,23.80
2018-10-03T16:41:47.447Z,19.53
2018-10-03T16:44:15.852Z,25.97
2018-10-03T16:46:45.028Z,13.87
2018-10-03T16:49:13.579Z,22.53
2018-10-03T16:51:42.163Z,12.40
2018-10-03T16:54:11.247Z,10.90
2018-10-03T16:56:39.972Z,12.43
2018-10-03T16:59:09.146Z,13.93
2018-10-03T17:01:38.114Z,13.73
2018-10-03T17:04:06.468Z,7.47
2018-10-03T17:06:34.829Z,6.97
2018-10-03T17:09:03.467Z,6.37
2018-10-03T17:11:32.852Z,12.93
2018-10-03T17:14:40.439Z,8.07
2018-10-03T17:17:09.576Z,10.07
2018-10-03T17:19:38.199Z,8.73
2018-10-03T17:22:06.890Z,7.80
2018-10-03T17:24:36.494Z,6.77
2018-10-03T17:27:04.897Z,8.33
2018-10-03T17:29:33.236Z,8.20
2018-10-03T17:32:01.691Z,13.37
2018-10-03T17:34:30.014Z,7.13
2018-10-03T17:36:58.630Z,6.13
2018-10-03T17:39:27.715Z,9.20
2018-10-03T17:41:56.182Z,7.10
2018-10-03T17:44:25.685Z,10.30
2018-10-03T17:46:55.405Z,8.23
2018-10-03T17:49:23.745Z,11.50
2018-10-03T17:51:52.190Z,7.20
2018-10-03T17:54:20.763Z,9.98
2018-10-03T17:56:49.505Z,9.70
2018-10-03T17:59:18.406Z,6.00
2018-10-03T18:01:51.230Z,7.53
2018-10-03T18:04:19.800Z,5.77
2018-10-03T18:06:48.245Z,9.47
2018-10-03T18:09:16.987Z,6.77
2018-10-03T18:11:45.424Z,6.20
2018-10-03T18:14:13.834Z,7.87
2018-10-03T18:16:42.211Z,11.00
2018-10-03T18:19:10.586Z,8.63
2018-10-03T18:21:38.926Z,8.87
2018-10-03T18:24:07.365Z,6.87
2018-10-03T18:26:36.024Z,5.57
2018-10-03T18:29:04.515Z,6.63
2018-10-03T18:31:32.981Z,4.50
2018-10-03T18:34:01.202Z,7.63
2018-10-03T18:36:30.242Z,6.17
2018-10-03T18:38:58.535Z,9.07
2018-10-03T18:41:26.863Z,6.43
2018-10-03T18:43:55.168Z,9.30
2018-10-03T18:46:23.535Z,8.13
2018-10-03T18:48:51.963Z,9.63
2018-10-03T18:51:20.291Z,6.63
2018-10-03T18:53:48.961Z,9.70
2018-10-03T18:56:17.324Z,7.07
2018-10-03T18:58:45.646Z,22.40
2018-10-03T19:01:14.047Z,13.37
2018-10-03T19:03:42.632Z,13.93
2018-10-03T19:06:11.190Z,9.90
2018-10-03T19:08:39.515Z,8.73
2018-10-03T19:11:07.889Z,10.07
2018-10-03T19:13:36.331Z,11.90
2018-10-03T19:16:04.875Z,15.53
2018-10-03T19:18:33.467Z,11.57
2018-10-03T19:21:01.753Z,9.53
2018-10-03T19:23:30.110Z,9.17
2018-10-03T19:25:58.447Z,9.33
2018-10-03T19:28:26.883Z,12.63
2018-10-03T19:30:55.404Z,9.10
2018-10-03T19:33:23.750Z,5.57
2018-10-03T19:35:52.117Z,8.37
2018-10-03T19:38:20.465Z,7.50
2018-10-03T19:40:50.131Z,8.43
2018-10-03T19:43:18.920Z,7.07
2018-10-03T19:45:47.493Z,6.57
2018-10-03T19:48:16.243Z,7.83
2018-10-03T19:50:45.011Z,7.90
2018-10-03T19:53:13.412Z,5.40
2018-10-03T19:55:41.745Z,11.17
2018-10-03T19:58:10.042Z,8.23
2018-10-03T20:00:38.371Z,6.63
2018-10-03T20:03:06.838Z,6.63
2018-10-03T20:05:35.224Z,7.37
2018-10-03T20:08:03.584Z,9.90
2018-10-03T20:10:32.003Z,8.00
2018-10-03T20:13:00.311Z,6.27
2018-10-03T20:15:28.739Z,9.70
2018-10-03T20:17:57.042Z,6.80
2018-10-03T20:20:25.540Z,8.73
2018-10-03T20:22:53.924Z,9.30
2018-10-03T20:25:22.372Z,6.87
2018-10-03T20:27:50.707Z,8.20
2018-10-03T20:30:19.107Z,8.40
2018-10-03T20:32:47.659Z,5.90
2018-10-03T20:35:16.041Z,3.87
2018-10-03T20:37:44.696Z,10.47
2018-10-03T20:40:13.081Z,15.20
2018-10-03T20:42:41.526Z,23.80
2018-10-03T20:45:09.859Z,29.10
2018-10-03T20:47:38.214Z,26.77
2018-10-03T20:50:06.644Z,15.07
2018-10-03T20:52:34.963Z,11.30
2018-10-03T20:55:03.314Z,16.53
2018-10-03T20:57:31.667Z,25.03
2018-10-03T21:00:00.012Z,20.13
2018-10-03T21:02:28.559Z,15.20
2018-10-03T21:04:57.075Z,13.97
2018-10-03T21:07:25.434Z,14.13
2018-10-03T21:09:53.811Z,13.30
2018-10-03T21:12:22.372Z,14.50
2018-10-03T21:14:50.707Z,12.90
2018-10-03T21:17:19.316Z,19.20
2018-10-03T21:19:47.713Z,16.80
2018-10-03T21:22:16.058Z,21.30
2018-10-03T21:24:44.503Z,17.17
2018-10-03T21:27:12.994Z,13.13
2018-10-03T21:29:41.311Z,14.27
2018-10-03T21:32:09.623Z,13.70
2018-10-03T21:34:37.938Z,16.43
2018-10-03T21:37:06.316Z,12.57
2018-10-03T21:39:34.648Z,10.00
2018-10-03T21:42:02.997Z,9.33
2018-10-03T21:44:31.291Z,14.80
2018-10-03T21:46:59.616Z,12.17
2018-10-03T21:49:27.969Z,11.77
2018-10-03T21:51:57.662Z,9.50
2018-10-03T21:54:26.001Z,11.73
2018-10-03T21:56:54.327Z,12.23
2018-10-03T21:59:22.686Z,11.03
2018-10-03T22:01:51.009Z,10.73
2018-10-03T22:04:19.346Z,12.13
2018-10-03T22:06:47.658Z,9.40
2018-10-03T22:09:15.974Z,10.00
2018-10-03T22:11:44.343Z,11.70
2018-10-03T22:14:12.690Z,8.70
2018-10-03T22:16:41.055Z,7.50
2018-10-03T22:19:09.447Z,7.93
2018-10-03T22:21:37.819Z,5.73
2018-10-03T22:24:06.151Z,7.07
2018-10-03T22:26:34.471Z,5.83
2018-10-03T22:29:02.863Z,8.93
2018-10-03T22:31:31.175Z,7.10
2018-10-03T22:33:59.491Z,7.60
2018-10-03T22:36:27.899Z,7.67
2018-10-03T22:38:56.215Z,10.67
2018-10-03T22:41:24.580Z,8.70
2018-10-03T22:43:52.887Z,9.73
2018-10-03T22:46:21.283Z,10.27
2018-10-03T22:48:49.563Z,8.77
2018-10-03T22:51:17.880Z,9.63
2018-10-03T22:53:46.214Z,8.03
2018-10-03T22:56:14.598Z,11.90
2018-10-03T22:58:43.035Z,7.43
2018-10-03T23:01:11.405Z,10.33
2018-10-03T23:03:39.741Z,13.07
2018-10-03T23:06:08.097Z,13.17
2018-10-03T23:08:36.963Z,12.60
2018-10-03T23:11:05.312Z,8.03
2018-10-03T23:13:33.663Z,10.30
2018-10-03T23:16:02.028Z,9.30
2018-10-03T23:18:30.439Z,11.17
2018-10-03T23:20:58.741Z,8.90
2018-10-03T23:23:27.095Z,10.10
2018-10-03T23:25:55.390Z,9.10
2018-10-03T23:28:23.716Z,8.07
2018-10-03T23:30:52.416Z,11.03
2018-10-03T23:33:20.749Z,8.80
2018-10-03T23:35:49.065Z,7.73
2018-10-03T23:38:17.411Z,10.03
2018-10-03T23:40:45.771Z,10.00
2018-10-03T23:43:14.316Z,8.50
2018-10-03T23:45:42.675Z,7.80
2018-10-03T23:48:10.999Z,8.73
2018-10-03T23:50:39.334Z,11.23
2018-10-03T23:53:07.663Z,7.63
2018-10-03T23:55:35.967Z,8.20
2018-10-03T23:58:04.339Z,12.60
